createdAt,value
2023-01-27T00:00:54.070Z,2.63
2023-01-27T00:03:21.441Z,3.08
2023-01-27T00:05:48.940Z,2.50
2023-01-27T00:08:16.596Z,2.72
2023-01-27T00:10:43.654Z,2.70
2023-01-27T00:13:28.194Z,2.90
2023-01-27T00:15:55.714Z,2.65
2023-01-27T00:18:23.935Z,2.42
2023-01-27T00:21:10.043Z,2.67
2023-01-27T00:23:56.132Z,2.28
2023-01-27T00:26:23.438Z,3.28
2023-01-27T00:28:50.440Z,2.35
2023-01-27T00:31:37.736Z,2.50
2023-01-27T00:34:11.398Z,2.00
2023-01-27T00:36:41.186Z,2.33
2023-01-27T00:39:10.088Z,1.85
2023-01-27T00:41:37.315Z,2.13
2023-01-27T00:44:05.823Z,2.38
2023-01-27T00:46:34.990Z,2.50
2023-01-27T00:49:02.177Z,3.47
2023-01-27T00:51:30.670Z,2.97
2023-01-27T00:53:59.293Z,2.83
2023-01-27T00:56:28.270Z,2.65
2023-01-27T00:58:55.745Z,2.30
2023-01-27T01:01:23.104Z,2.83
2023-01-27T01:03:50.364Z,2.47
2023-01-27T01:06:18.967Z,3.78
2023-01-27T01:08:50.187Z,2.67
2023-01-27T01:11:18.811Z,2.10
2023-01-27T01:13:46.757Z,2.25
2023-01-27T01:16:17.316Z,2.25
2023-01-27T01:18:44.683Z,2.63
2023-01-27T01:21:12.418Z,2.83
2023-01-27T01:23:41.850Z,2.53
2023-01-27T01:26:14.764Z,2.45
2023-01-27T01:28:41.954Z,2.42
2023-01-27T01:31:11.642Z,2.70
2023-01-27T01:33:39.280Z,2.08
2023-01-27T01:36:13.354Z,2.55
2023-01-27T01:38:40.684Z,2.15
2023-01-27T01:41:11.091Z,2.83
2023-01-27T01:43:38.067Z,3.08
2023-01-27T01:46:07.916Z,2.42
2023-01-27T01:48:54.908Z,2.05
2023-01-27T01:51:37.568Z,3.10
2023-01-27T01:54:14.381Z,2.10
2023-01-27T01:56:43.695Z,2.30
2023-01-27T01:59:39.464Z,2.65
2023-01-27T02:02:11.100Z,2.55
2023-01-27T02:05:01.625Z,2.40
2023-01-27T02:07:39.011Z,2.40
2023-01-27T02:10:06.615Z,2.58
2023-01-27T02:12:35.757Z,1.75
2023-01-27T02:15:04.003Z,2.63
2023-01-27T02:17:31.151Z,2.10
2023-01-27T02:20:07.738Z,2.30
2023-01-27T02:22:59.697Z,2.40
2023-01-27T02:25:34.798Z,2.83
2023-01-27T02:28:03.808Z,3.13
2023-01-27T02:30:31.056Z,2.58
2023-01-27T02:32:58.505Z,2.83
2023-01-27T02:35:39.315Z,2.33
2023-01-27T02:38:09.220Z,2.30
2023-01-27T02:40:37.627Z,2.15
2023-01-27T02:43:05.655Z,2.28
2023-01-27T02:45:32.615Z,2.22
2023-01-27T02:47:59.948Z,2.75
2023-01-27T02:50:27.262Z,2.67
2023-01-27T02:52:54.195Z,2.25
2023-01-27T02:55:22.243Z,1.95
2023-01-27T02:57:51.436Z,2.30
2023-01-27T03:00:36.764Z,2.30
2023-01-27T03:03:03.944Z,2.40
2023-01-27T03:05:30.899Z,2.13
2023-01-27T03:07:57.907Z,2.40
2023-01-27T03:10:24.939Z,3.30
2023-01-27T03:12:51.927Z,2.00
2023-01-27T03:15:37.423Z,2.20
2023-01-27T03:18:09.672Z,2.28
2023-01-27T03:20:36.699Z,2.08
2023-01-27T03:23:03.944Z,2.47
2023-01-27T03:25:33.544Z,1.88
2023-01-27T03:28:01.003Z,2.75
2023-01-27T03:30:38.347Z,1.80
2023-01-27T03:33:13.271Z,2.70
2023-01-27T03:36:19.155Z,2.42
2023-01-27T03:39:08.080Z,2.13
2023-01-27T03:41:53.671Z,3.33
2023-01-27T03:44:40.863Z,2.47
2023-01-27T03:47:07.810Z,2.10
2023-01-27T03:49:34.727Z,2.60
2023-01-27T03:52:01.752Z,2.58
2023-01-27T03:54:29.088Z,2.42
2023-01-27T03:56:55.999Z,2.47
2023-01-27T03:59:23.673Z,2.90
2023-01-27T04:01:50.660Z,2.88
2023-01-27T04:04:36.461Z,2.13
2023-01-27T04:07:03.424Z,2.70
2023-01-27T04:09:34.019Z,2.50
2023-01-27T04:12:04.495Z,2.25
2023-01-27T04:14:35.725Z,2.50
2023-01-27T04:17:09.595Z,2.20
2023-01-27T04:19:36.639Z,2.25
2023-01-27T04:22:05.393Z,2.25
2023-01-27T04:24:32.679Z,2.95
2023-01-27T04:27:05.084Z,2.47
2023-01-27T04:29:37.535Z,2.80
2023-01-27T04:32:09.425Z,2.20
2023-01-27T04:34:36.924Z,2.63
2023-01-27T04:37:05.639Z,3.50
2023-01-27T04:39:33.068Z,2.63
2023-01-27T04:42:00.486Z,2.55
2023-01-27T04:44:29.667Z,2.75
2023-01-27T04:46:56.635Z,3.17
2023-01-27T04:49:23.592Z,2.75
2023-01-27T04:51:50.589Z,2.28
2023-01-27T04:54:17.595Z,2.40
2023-01-27T04:56:59.849Z,2.78
2023-01-27T04:59:27.569Z,2.78
2023-01-27T05:01:54.762Z,2.75
2023-01-27T05:04:21.909Z,2.60
2023-01-27T05:06:49.007Z,2.45
2023-01-27T05:09:16.013Z,2.33
2023-01-27T05:11:42.965Z,2.78
2023-01-27T05:14:10.034Z,2.90
2023-01-27T05:16:38.953Z,4.00
2023-01-27T05:19:07.274Z,2.83
2023-01-27T05:21:34.261Z,2.67
2023-01-27T05:24:02.291Z,2.72
2023-01-27T05:26:29.394Z,3.35
2023-01-27T05:28:59.638Z,2.47
2023-01-27T05:31:30.193Z,2.90
2023-01-27T05:33:59.504Z,2.90
2023-01-27T05:36:27.025Z,2.90
2023-01-27T05:38:55.112Z,2.70
2023-01-27T05:41:22.620Z,3.42
2023-01-27T05:43:54.711Z,3.05
2023-01-27T05:46:24.184Z,2.53
2023-01-27T05:48:53.845Z,4.05
2023-01-27T05:51:23.396Z,3.28
2023-01-27T05:53:50.617Z,3.17
2023-01-27T05:56:19.619Z,2.95
2023-01-27T05:58:46.800Z,3.03
2023-01-27T06:01:18.063Z,3.38
2023-01-27T06:03:46.031Z,3.30
2023-01-27T06:06:15.002Z,3.13
2023-01-27T06:08:42.307Z,3.35
2023-01-27T06:11:09.645Z,3.10
2023-01-27T06:13:38.807Z,3.40
2023-01-27T06:16:11.541Z,3.13
2023-01-27T06:18:39.485Z,3.90
2023-01-27T06:21:08.857Z,3.63
2023-01-27T06:23:36.068Z,3.30
2023-01-27T06:26:12.789Z,3.88
2023-01-27T06:28:40.099Z,3.22
2023-01-27T06:31:11.770Z,3.55
2023-01-27T06:33:39.117Z,3.83
2023-01-27T06:36:08.815Z,3.80
2023-01-27T06:38:35.923Z,3.25
2023-01-27T06:41:02.919Z,4.53
2023-01-27T06:43:30.074Z,3.85
2023-01-27T06:46:00.256Z,3.85
2023-01-27T06:48:28.275Z,3.90
2023-01-27T06:50:56.708Z,3.75
2023-01-27T06:53:24.265Z,4.13
2023-01-27T06:55:59.589Z,5.80
2023-01-27T06:58:27.426Z,4.20
2023-01-27T07:00:55.347Z,3.95
2023-01-27T07:03:22.846Z,4.15
2023-01-27T07:05:50.308Z,4.35
2023-01-27T07:08:17.368Z,3.90
2023-01-27T07:10:44.422Z,4.32
2023-01-27T07:13:13.626Z,3.83
2023-01-27T07:15:41.264Z,4.93
2023-01-27T07:18:09.515Z,5.55
2023-01-27T07:20:36.541Z,4.82
2023-01-27T07:23:05.220Z,5.75
2023-01-27T07:25:34.402Z,5.50
2023-01-27T07:28:02.277Z,5.47
2023-01-27T07:30:30.405Z,5.28
2023-01-27T07:33:10.422Z,5.05
2023-01-27T07:35:38.545Z,5.20
2023-01-27T07:38:06.392Z,5.60
2023-01-27T07:40:33.528Z,5.05
2023-01-27T07:43:01.452Z,5.03
2023-01-27T07:45:29.554Z,5.95
2023-01-27T07:48:08.475Z,5.50
2023-01-27T07:50:36.455Z,5.40
2023-01-27T07:53:05.143Z,5.25
2023-01-27T07:55:33.029Z,6.50
2023-01-27T07:58:00.072Z,4.93
2023-01-27T08:00:28.287Z,5.65
2023-01-27T08:02:56.450Z,5.80
2023-01-27T08:05:23.965Z,5.78
2023-01-27T08:07:51.891Z,5.07
2023-01-27T08:10:19.452Z,5.53
2023-01-27T08:12:46.823Z,5.72
2023-01-27T08:15:16.585Z,6.35
2023-01-27T08:17:45.354Z,6.03
2023-01-27T08:20:12.981Z,5.65
2023-01-27T08:22:40.276Z,6.55
2023-01-27T08:25:07.532Z,5.63
2023-01-27T08:27:34.455Z,6.90
2023-01-27T08:30:01.400Z,6.35
2023-01-27T08:32:28.362Z,5.72
2023-01-27T08:34:55.716Z,6.75
2023-01-27T08:37:22.722Z,5.82
2023-01-27T08:39:49.640Z,6.70
2023-01-27T08:42:16.626Z,6.40
2023-01-27T08:44:43.597Z,5.72
2023-01-27T08:47:10.614Z,6.38
2023-01-27T08:49:37.541Z,6.53
2023-01-27T08:52:04.715Z,5.57
2023-01-27T08:54:31.845Z,5.97
2023-01-27T08:56:59.058Z,6.70
2023-01-27T08:59:26.003Z,5.75
2023-01-27T09:01:52.988Z,6.05
2023-01-27T09:04:22.651Z,5.82
2023-01-27T09:06:50.417Z,5.00
2023-01-27T09:09:17.370Z,5.68
2023-01-27T09:11:45.653Z,4.97
2023-01-27T09:14:13.884Z,5.05
2023-01-27T09:16:40.866Z,5.28
2023-01-27T09:19:08.785Z,5.00
2023-01-27T09:21:35.681Z,5.68
2023-01-27T09:24:02.787Z,5.07
2023-01-27T09:26:29.778Z,4.80
2023-01-27T09:28:56.747Z,4.80
2023-01-27T09:31:23.979Z,5.05
2023-01-27T09:33:51.074Z,5.43
2023-01-27T09:36:21.526Z,4.88
2023-01-27T09:39:02.845Z,4.80
2023-01-27T09:41:43.671Z,5.80
2023-01-27T09:44:28.448Z,5.18
2023-01-27T09:47:29.321Z,6.57
2023-01-27T09:50:29.163Z,5.47
2023-01-27T09:52:58.982Z,5.25
2023-01-27T09:55:57.698Z,5.47
2023-01-27T09:58:43.231Z,5.25
2023-01-27T10:01:22.166Z,5.57
2023-01-27T10:04:01.336Z,4.75
2023-01-27T10:06:34.931Z,4.60
2023-01-27T10:09:35.576Z,5.50
2023-01-27T10:12:05.354Z,4.97
2023-01-27T10:14:48.975Z,5.20
2023-01-27T10:17:34.832Z,5.40
2023-01-27T10:20:11.098Z,5.50
2023-01-27T10:22:38.081Z,4.85
2023-01-27T10:25:40.468Z,5.07
2023-01-27T10:28:30.255Z,5.68
2023-01-27T10:31:22.062Z,5.15
2023-01-27T10:33:49.168Z,5.55
2023-01-27T10:36:21.895Z,4.72
2023-01-27T10:39:03.915Z,5.32
2023-01-27T10:41:43.212Z,5.72
2023-01-27T10:44:15.955Z,5.78
2023-01-27T10:47:24.229Z,5.38
2023-01-27T10:50:01.927Z,4.88
2023-01-27T10:52:41.484Z,4.57
2023-01-27T10:55:18.877Z,4.20
2023-01-27T10:58:00.165Z,4.82
2023-01-27T11:01:19.818Z,4.85
2023-01-27T11:03:52.317Z,4.25
2023-01-27T11:06:28.063Z,4.45
2023-01-27T11:09:08.680Z,4.60
2023-01-27T11:11:45.363Z,4.00
2023-01-27T11:14:41.676Z,4.20
2023-01-27T11:17:22.235Z,4.65
2023-01-27T11:20:16.588Z,4.93
2023-01-27T11:22:55.935Z,4.82
2023-01-27T11:25:40.511Z,3.75
2023-01-27T11:28:16.417Z,4.60
2023-01-27T11:31:06.700Z,4.18
2023-01-27T11:33:48.392Z,3.70
2023-01-27T11:36:15.535Z,3.63
2023-01-27T11:38:42.459Z,3.95
2023-01-27T11:41:10.390Z,3.40
2023-01-27T11:43:38.559Z,3.28
2023-01-27T11:46:10.993Z,3.58
2023-01-27T11:48:49.317Z,3.50
2023-01-27T11:51:21.496Z,2.90
2023-01-27T11:54:04.967Z,3.35
2023-01-27T11:56:33.554Z,3.70
2023-01-27T11:59:24.023Z,3.50
2023-01-27T12:02:02.903Z,3.47
2023-01-27T12:04:39.381Z,3.15
2023-01-27T12:07:14.056Z,3.55
2023-01-27T12:09:42.279Z,2.75
2023-01-27T12:12:15.142Z,2.72
2023-01-27T12:14:57.758Z,2.85
2023-01-27T12:17:40.508Z,3.05
2023-01-27T12:20:40.568Z,3.40
2023-01-27T12:23:32.477Z,3.47
2023-01-27T12:26:03.089Z,3.15
2023-01-27T12:28:32.868Z,2.95
2023-01-27T12:31:11.668Z,3.15
2023-01-27T12:33:44.594Z,3.17
2023-01-27T12:36:17.959Z,3.05
2023-01-27T12:38:50.350Z,2.90
2023-01-27T12:41:27.349Z,3.15
2023-01-27T12:44:13.656Z,2.92
2023-01-27T12:46:54.656Z,3.10
2023-01-27T12:49:25.012Z,3.20
2023-01-27T12:51:55.172Z,3.17
2023-01-27T12:54:32.195Z,2.97
2023-01-27T12:57:11.995Z,2.78
2023-01-27T12:59:51.118Z,2.78
2023-01-27T13:02:22.766Z,3.30
2023-01-27T13:05:02.465Z,2.50
2023-01-27T13:07:36.559Z,3.00
2023-01-27T13:10:16.867Z,2.70
2023-01-27T13:12:51.921Z,2.88
2023-01-27T13:15:24.231Z,2.95
2023-01-27T13:17:53.308Z,2.80
2023-01-27T13:20:31.116Z,2.67
2023-01-27T13:23:22.607Z,3.10
2023-01-27T13:26:08.820Z,3.25
2023-01-27T13:28:52.227Z,3.25
2023-01-27T13:31:32.630Z,2.50
2023-01-27T13:34:18.950Z,2.53
2023-01-27T13:37:10.846Z,3.15
2023-01-27T13:40:18.142Z,3.35
2023-01-27T13:42:53.684Z,2.88
2023-01-27T13:45:37.475Z,3.38
2023-01-27T13:48:13.264Z,3.20
2023-01-27T13:50:42.491Z,3.10
2023-01-27T13:53:13.937Z,3.00
2023-01-27T13:55:56.349Z,3.13
2023-01-27T13:58:48.016Z,3.03
2023-01-27T14:01:32.342Z,3.10
2023-01-27T14:04:05.173Z,3.03
2023-01-27T14:06:55.236Z,2.97
2023-01-27T14:09:30.268Z,2.70
2023-01-27T14:12:03.348Z,3.10
2023-01-27T14:14:52.523Z,2.83
2023-01-27T14:18:11.888Z,3.00
2023-01-27T14:20:57.717Z,2.83
2023-01-27T14:23:46.547Z,2.65
2023-01-27T14:26:40.341Z,2.78
2023-01-27T14:29:27.341Z,3.13
2023-01-27T14:32:06.433Z,3.00
2023-01-27T14:34:42.279Z,2.85
2023-01-27T14:37:33.022Z,3.15
2023-01-27T14:40:15.849Z,2.75
2023-01-27T14:42:55.979Z,3.05
2023-01-27T14:45:38.263Z,2.78
2023-01-27T14:48:22.130Z,3.17
2023-01-27T14:51:13.070Z,2.80
2023-01-27T14:54:25.897Z,3.05
2023-01-27T14:57:16.567Z,3.33
2023-01-27T15:00:01.836Z,3.40
2023-01-27T15:02:40.884Z,2.97
2023-01-27T15:05:38.572Z,3.17
2023-01-27T15:08:20.650Z,2.63
2023-01-27T15:11:07.762Z,2.70
2023-01-27T15:14:11.883Z,2.83
2023-01-27T15:16:51.787Z,2.80
2023-01-27T15:19:36.502Z,2.72
2023-01-27T15:22:31.397Z,2.60
2023-01-27T15:25:34.974Z,2.80
2023-01-27T15:28:04.169Z,2.75
2023-01-27T15:30:38.115Z,2.92
2023-01-27T15:33:42.677Z,2.97
2023-01-27T15:36:24.744Z,2.92
2023-01-27T15:39:00.854Z,2.83
2023-01-27T15:41:28.535Z,2.85
2023-01-27T15:44:18.663Z,3.05
2023-01-27T15:46:50.061Z,3.47
2023-01-27T15:49:27.899Z,3.60
2023-01-27T15:51:57.810Z,3.30
2023-01-27T15:54:34.933Z,2.85
2023-01-27T15:57:06.714Z,3.35
2023-01-27T15:59:58.538Z,2.90
2023-01-27T16:02:30.757Z,3.20
2023-01-27T16:05:24.111Z,3.33
2023-01-27T16:07:54.086Z,2.92
2023-01-27T16:10:24.704Z,3.08
2023-01-27T16:13:23.242Z,3.25
2023-01-27T16:16:18.863Z,2.80
2023-01-27T16:19:04.749Z,3.22
2023-01-27T16:21:49.565Z,3.15
2023-01-27T16:24:50.672Z,2.83
2023-01-27T16:27:23.101Z,3.33
2023-01-27T16:29:58.149Z,3.00
2023-01-27T16:32:36.196Z,3.75
2023-01-27T16:35:15.750Z,3.00
2023-01-27T16:37:59.321Z,3.40
2023-01-27T16:40:27.943Z,3.15
2023-01-27T16:43:38.367Z,3.00
2023-01-27T16:46:05.932Z,3.15
2023-01-27T16:48:47.024Z,2.95
2023-01-27T16:51:26.137Z,3.28
2023-01-27T16:53:56.249Z,3.17
2023-01-27T16:56:35.448Z,3.28
2023-01-27T16:59:05.756Z,3.70
2023-01-27T17:01:42.192Z,3.58
2023-01-27T17:04:21.263Z,3.15
2023-01-27T17:06:53.842Z,3.13
2023-01-27T17:09:26.904Z,3.08
2023-01-27T17:11:55.803Z,2.92
2023-01-27T17:14:40.575Z,4.50
2023-01-27T17:17:18.232Z,3.38
2023-01-27T17:19:49.006Z,3.10
2023-01-27T17:22:25.370Z,3.50
2023-01-27T17:24:54.950Z,3.35
2023-01-27T17:27:31.078Z,3.35
2023-01-27T17:30:14.685Z,3.75
2023-01-27T17:32:47.043Z,3.83
2023-01-27T17:35:23.492Z,3.15
2023-01-27T17:37:51.246Z,3.38
2023-01-27T17:40:21.306Z,3.38
2023-01-27T17:42:49.479Z,3.55
2023-01-27T17:45:32.050Z,2.92
2023-01-27T17:48:00.850Z,3.38
2023-01-27T17:50:37.264Z,3.72
2023-01-27T17:53:10.348Z,3.30
2023-01-27T17:55:37.445Z,4.20
2023-01-27T17:58:08.369Z,3.67
2023-01-27T18:00:40.154Z,3.45
2023-01-27T18:03:20.602Z,3.60
2023-01-27T18:05:50.791Z,4.45
2023-01-27T18:08:19.476Z,4.43
2023-01-27T18:10:47.092Z,3.63
2023-01-27T18:13:35.614Z,3.90
2023-01-27T18:16:19.692Z,4.07
2023-01-27T18:18:47.635Z,4.18
2023-01-27T18:21:24.477Z,3.88
2023-01-27T18:23:57.629Z,3.08
2023-01-27T18:26:32.763Z,4.65
2023-01-27T18:29:05.660Z,4.10
2023-01-27T18:31:44.121Z,4.40
2023-01-27T18:34:27.790Z,3.33
2023-01-27T18:37:04.044Z,3.83
2023-01-27T18:39:34.005Z,3.90
2023-01-27T18:42:03.009Z,4.30
2023-01-27T18:44:37.103Z,4.03
2023-01-27T18:47:19.312Z,3.85
2023-01-27T18:49:59.390Z,4.13
2023-01-27T18:52:27.228Z,4.47
2023-01-27T18:55:01.044Z,4.10
2023-01-27T18:57:28.451Z,3.83
2023-01-27T18:59:55.379Z,4.50
2023-01-27T19:02:22.859Z,4.45
2023-01-27T19:04:50.100Z,4.70
2023-01-27T19:07:18.672Z,4.60
2023-01-27T19:09:47.080Z,4.90
2023-01-27T19:12:23.885Z,5.20
2023-01-27T19:14:50.882Z,4.22
2023-01-27T19:17:24.037Z,4.20
2023-01-27T19:19:51.372Z,4.22
2023-01-27T19:22:20.793Z,4.47
2023-01-27T19:24:48.661Z,4.07
2023-01-27T19:27:18.103Z,4.50
2023-01-27T19:29:45.305Z,4.32
2023-01-27T19:32:14.655Z,3.80
2023-01-27T19:34:41.878Z,4.78
2023-01-27T19:37:27.222Z,4.85
2023-01-27T19:39:54.199Z,4.85
2023-01-27T19:42:21.151Z,4.80
2023-01-27T19:44:48.081Z,4.60
2023-01-27T19:47:15.050Z,5.60
2023-01-27T19:49:42.305Z,5.00
2023-01-27T19:52:10.100Z,5.32
2023-01-27T19:54:37.180Z,5.15
2023-01-27T19:57:04.928Z,5.35
2023-01-27T19:59:32.010Z,5.85
2023-01-27T20:01:58.975Z,5.60
2023-01-27T20:04:26.664Z,5.70
2023-01-27T20:06:53.724Z,5.25
2023-01-27T20:09:20.668Z,4.85
2023-01-27T20:11:47.651Z,5.22
2023-01-27T20:14:18.941Z,5.20
2023-01-27T20:16:47.084Z,5.60
2023-01-27T20:19:15.422Z,4.88
2023-01-27T20:21:43.199Z,5.18
2023-01-27T20:24:14.801Z,4.88
2023-01-27T20:26:41.810Z,4.90
2023-01-27T20:29:08.792Z,5.80
2023-01-27T20:31:37.749Z,5.63
2023-01-27T20:34:04.713Z,5.72
2023-01-27T20:36:31.812Z,4.88
2023-01-27T20:38:58.745Z,5.45
2023-01-27T20:41:25.941Z,4.80
2023-01-27T20:44:02.491Z,5.40
2023-01-27T20:46:30.014Z,5.30
2023-01-27T20:48:59.032Z,5.65
2023-01-27T20:51:26.066Z,4.55
2023-01-27T20:53:53.564Z,5.38
2023-01-27T20:56:23.035Z,5.57
2023-01-27T20:58:50.068Z,5.53
2023-01-27T21:01:19.633Z,5.47
2023-01-27T21:03:47.045Z,5.13
2023-01-27T21:06:19.932Z,4.72
2023-01-27T21:08:49.998Z,4.70
2023-01-27T21:11:18.629Z,5.35
2023-01-27T21:13:46.392Z,5.43
2023-01-27T21:16:13.565Z,5.18
2023-01-27T21:18:40.952Z,5.15
2023-01-27T21:21:07.980Z,5.15
2023-01-27T21:23:35.176Z,4.90
2023-01-27T21:26:09.180Z,4.50
2023-01-27T21:28:36.564Z,4.13
2023-01-27T21:31:08.402Z,4.25
2023-01-27T21:33:36.734Z,3.85
2023-01-27T21:36:04.786Z,5.03
2023-01-27T21:38:32.605Z,4.40
2023-01-27T21:41:06.223Z,3.88
2023-01-27T21:43:51.923Z,4.38
2023-01-27T21:46:19.382Z,4.10
2023-01-27T21:48:46.591Z,3.60
2023-01-27T21:51:14.072Z,4.35
2023-01-27T21:53:41.518Z,3.70
2023-01-27T21:56:10.525Z,3.55
2023-01-27T21:58:37.738Z,3.92
2023-01-27T22:01:06.638Z,4.45
2023-01-27T22:03:34.041Z,3.83
2023-01-27T22:06:08.189Z,3.75
2023-01-27T22:08:35.578Z,3.35
2023-01-27T22:11:04.227Z,4.22
2023-01-27T22:13:31.836Z,4.05
2023-01-27T22:15:59.340Z,3.88
2023-01-27T22:18:26.547Z,4.57
2023-01-27T22:20:53.523Z,4.15
2023-01-27T22:23:20.705Z,3.80
2023-01-27T22:25:49.625Z,4.50
2023-01-27T22:28:17.223Z,4.32
2023-01-27T22:30:44.266Z,4.88
2023-01-27T22:33:13.406Z,13.88
2023-01-27T22:35:40.584Z,11.30
2023-01-27T22:38:07.643Z,10.13
2023-01-27T22:40:34.681Z,9.88
2023-01-27T22:43:09.195Z,8.82
2023-01-27T22:45:40.150Z,10.48
2023-01-27T22:48:08.786Z,8.32
2023-01-27T22:50:36.860Z,8.18
2023-01-27T22:53:05.431Z,7.78
2023-01-27T22:55:33.087Z,7.93
2023-01-27T22:58:00.076Z,7.72
2023-01-27T23:00:27.315Z,7.30
2023-01-27T23:02:57.737Z,6.60
2023-01-27T23:05:24.745Z,6.82
2023-01-27T23:07:51.732Z,6.93
2023-01-27T23:10:18.793Z,7.72
2023-01-27T23:12:45.753Z,6.97
2023-01-27T23:15:13.455Z,6.50
2023-01-27T23:17:40.521Z,7.22
2023-01-27T23:20:08.306Z,7.35
2023-01-27T23:22:35.380Z,6.78
2023-01-27T23:25:02.403Z,6.57
2023-01-27T23:27:29.464Z,6.75
2023-01-27T23:29:56.489Z,7.22
2023-01-27T23:32:23.468Z,6.88
2023-01-27T23:34:50.679Z,6.18
2023-01-27T23:37:18.089Z,6.47
2023-01-27T23:39:48.717Z,7.35
2023-01-27T23:42:19.227Z,6.57
2023-01-27T23:44:47.239Z,6.60
2023-01-27T23:47:15.333Z,6.82
2023-01-27T23:49:42.549Z,6.63
2023-01-27T23:52:09.571Z,6.10
2023-01-27T23:54:36.494Z,6.18
2023-01-27T23:57:03.476Z,5.97
2023-01-27T23:59:30.551Z,6.28
